createdAt,value
2018-03-11T00:00:44.240Z,0.00
2018-03-11T00:01:44.191Z,0.00
2018-03-11T00:02:44.251Z,0.00
2018-03-11T00:03:44.104Z,0.00
2018-03-11T00:04:44.365Z,0.00
2018-03-11T00:05:44.019Z,0.00
2018-03-11T00:06:43.978Z,0.00
2018-03-11T00:07:43.935Z,0.00
2018-03-11T00:08:43.892Z,0.00
2018-03-11T00:09:43.852Z,0.00
2018-03-11T00:10:43.808Z,0.00
2018-03-11T00:11:44.067Z,0.00
2018-03-11T00:12:43.729Z,0.00
2018-03-11T00:13:43.782Z,0.00
2018-03-11T00:14:43.687Z,0.00
2018-03-11T00:15:43.600Z,0.00
2018-03-11T00:16:43.556Z,0.00
2018-03-11T00:17:43.514Z,0.00
2018-03-11T00:18:43.772Z,0.00
2018-03-11T00:19:43.481Z,0.00
2018-03-11T00:20:43.391Z,0.00
2018-03-11T00:21:43.345Z,0.00
2018-03-11T00:22:43.304Z,0.00
2018-03-11T00:23:43.262Z,0.00
2018-03-11T00:24:43.519Z,0.00
2018-03-11T00:25:43.178Z,0.00
2018-03-11T00:26:43.140Z,0.00
2018-03-11T00:27:43.096Z,0.00
2018-03-11T00:28:43.050Z,0.00
2018-03-11T00:29:43.013Z,0.00
2018-03-11T00:30:43.267Z,0.00
2018-03-11T00:31:42.922Z,0.00
2018-03-11T00:32:42.881Z,0.00
2018-03-11T00:33:42.844Z,0.00
2018-03-11T00:34:42.845Z,0.00
2018-03-11T00:35:42.956Z,0.00
2018-03-11T00:36:43.013Z,0.00
2018-03-11T00:37:42.669Z,0.00
2018-03-11T00:38:42.630Z,0.00
2018-03-11T00:39:42.586Z,0.00
2018-03-11T00:40:42.543Z,0.00
2018-03-11T00:41:42.607Z,0.00
2018-03-11T00:42:42.761Z,0.00
2018-03-11T00:43:42.419Z,0.00
2018-03-11T00:44:42.376Z,0.00
2018-03-11T00:45:42.333Z,0.00
2018-03-11T00:46:42.290Z,0.00
2018-03-11T00:47:42.305Z,0.00
2018-03-11T00:48:42.507Z,0.00
2018-03-11T00:49:42.167Z,0.00
2018-03-11T00:50:42.128Z,0.00
2018-03-11T00:51:42.079Z,0.00
2018-03-11T00:52:42.043Z,0.00
2018-03-11T00:53:41.994Z,0.00
2018-03-11T00:54:41.953Z,0.00
2018-03-11T00:55:42.211Z,0.00
2018-03-11T00:56:41.869Z,0.00
2018-03-11T00:57:41.830Z,0.00
2018-03-11T00:58:41.784Z,0.00
2018-03-11T00:59:41.746Z,0.00
2018-03-11T01:00:41.700Z,0.00
2018-03-11T01:01:41.657Z,0.00
2018-03-11T01:02:41.914Z,0.00
2018-03-11T01:03:41.622Z,0.00
2018-03-11T01:04:41.535Z,0.00
2018-03-11T01:05:41.488Z,0.00
2018-03-11T01:06:41.448Z,0.00
2018-03-11T01:07:41.433Z,0.00
2018-03-11T01:08:41.362Z,0.00
2018-03-11T01:09:41.621Z,0.00
2018-03-11T01:10:41.280Z,0.00
2018-03-11T01:11:41.235Z,0.00
2018-03-11T01:12:41.194Z,0.00
2018-03-11T01:13:41.150Z,0.00
2018-03-11T01:14:41.114Z,0.00
2018-03-11T01:15:41.083Z,0.00
2018-03-11T01:16:41.343Z,0.00
2018-03-11T01:17:40.981Z,0.00
2018-03-11T01:18:40.944Z,0.00
2018-03-11T01:19:40.905Z,0.00
2018-03-11T01:20:40.859Z,0.00
2018-03-11T01:21:40.814Z,0.00
2018-03-11T01:22:40.771Z,0.00
2018-03-11T01:23:41.030Z,0.00
2018-03-11T01:24:40.689Z,0.00
2018-03-11T01:25:40.645Z,0.00
2018-03-11T01:26:40.604Z,0.00
2018-03-11T01:27:40.565Z,0.00
2018-03-11T01:28:40.523Z,0.00
2018-03-11T01:29:40.488Z,0.00
2018-03-11T01:30:40.837Z,0.00
2018-03-11T01:31:40.394Z,0.00
2018-03-11T01:32:40.354Z,0.00
2018-03-11T01:33:40.309Z,0.00
2018-03-11T01:34:40.271Z,0.00
2018-03-11T01:35:40.230Z,0.00
2018-03-11T01:36:40.583Z,0.00
2018-03-11T01:37:40.147Z,0.00
2018-03-11T01:38:40.099Z,0.00
2018-03-11T01:39:40.057Z,0.00
2018-03-11T01:40:40.015Z,0.00
2018-03-11T01:41:39.971Z,0.00
2018-03-11T01:42:40.483Z,0.00
2018-03-11T01:43:39.888Z,0.00
2018-03-11T01:44:39.853Z,0.00
2018-03-11T01:45:39.808Z,0.00
2018-03-11T01:46:39.761Z,0.00
2018-03-11T01:47:39.720Z,0.00
2018-03-11T01:48:39.980Z,0.00
2018-03-11T01:49:39.636Z,0.00
2018-03-11T01:50:39.595Z,0.00
2018-03-11T01:51:39.563Z,0.00
2018-03-11T01:52:39.513Z,0.00
2018-03-11T01:53:39.472Z,0.00
2018-03-11T01:54:39.727Z,0.00
2018-03-11T01:55:39.384Z,0.00
2018-03-11T01:56:39.352Z,0.00
2018-03-11T01:57:39.298Z,0.00
2018-03-11T01:58:39.259Z,0.00
2018-03-11T01:59:39.216Z,0.00
2018-03-11T02:00:39.476Z,0.00
2018-03-11T02:01:39.134Z,0.00
2018-03-11T02:02:39.103Z,0.00
2018-03-11T02:03:39.053Z,0.00
2018-03-11T02:04:39.008Z,0.00
2018-03-11T02:05:38.961Z,0.00
2018-03-11T02:06:38.921Z,0.00
2018-03-11T02:07:39.179Z,0.00
2018-03-11T02:08:38.841Z,0.00
2018-03-11T02:09:38.796Z,0.00
2018-03-11T02:10:38.756Z,0.00
2018-03-11T02:11:38.715Z,0.00
2018-03-11T02:12:38.671Z,0.00
2018-03-11T02:13:38.628Z,0.00
2018-03-11T02:14:38.887Z,0.00
2018-03-11T02:15:38.544Z,0.00
2018-03-11T02:16:38.507Z,0.00
2018-03-11T02:17:38.460Z,0.00
2018-03-11T02:18:38.420Z,0.00
2018-03-11T02:19:38.375Z,0.00
2018-03-11T02:20:38.334Z,0.00
2018-03-11T02:21:38.600Z,0.00
2018-03-11T02:22:38.250Z,0.00
2018-03-11T02:23:38.207Z,0.00
2018-03-11T02:24:38.166Z,0.00
2018-03-11T02:25:38.129Z,0.00
2018-03-11T02:26:38.093Z,0.00
2018-03-11T02:27:38.045Z,0.00
2018-03-11T02:28:38.300Z,0.00
2018-03-11T02:29:37.957Z,0.00
2018-03-11T02:30:37.917Z,0.00
2018-03-11T02:31:37.879Z,0.00
2018-03-11T02:32:37.831Z,0.00
2018-03-11T02:33:37.840Z,0.00
2018-03-11T02:34:37.757Z,0.00
2018-03-11T02:35:38.012Z,0.00
2018-03-11T02:36:37.664Z,0.00
2018-03-11T02:37:37.624Z,0.00
2018-03-11T02:38:37.584Z,0.00
2018-03-11T02:39:37.586Z,0.00
2018-03-11T02:40:37.496Z,0.00
2018-03-11T02:41:37.453Z,0.00
2018-03-11T02:42:37.711Z,0.00
2018-03-11T02:43:37.375Z,0.00
2018-03-11T02:44:37.343Z,0.00
2018-03-11T02:45:37.443Z,0.00
2018-03-11T02:46:37.251Z,0.00
2018-03-11T02:47:37.218Z,0.00
2018-03-11T02:48:37.468Z,0.00
2018-03-11T02:49:37.125Z,0.00
2018-03-11T02:50:37.085Z,0.00
2018-03-11T02:51:37.041Z,0.00
2018-03-11T02:52:37.010Z,0.00
2018-03-11T02:53:36.956Z,0.00
2018-03-11T02:54:37.226Z,0.00
2018-03-11T02:55:36.873Z,0.00
2018-03-11T02:56:36.831Z,0.00
2018-03-11T02:57:36.794Z,0.00
2018-03-11T02:58:36.747Z,0.00
2018-03-11T02:59:36.706Z,0.00
2018-03-11T03:00:36.965Z,0.00
2018-03-11T03:01:36.622Z,0.00
2018-03-11T03:02:36.578Z,0.00
2018-03-11T03:03:36.542Z,0.00
2018-03-11T03:04:36.495Z,0.00
2018-03-11T03:05:36.452Z,0.00
2018-03-11T03:06:36.710Z,0.00
2018-03-11T03:07:36.371Z,0.00
2018-03-11T03:08:36.325Z,0.00
2018-03-11T03:09:36.281Z,0.00
2018-03-11T03:10:36.239Z,0.00
2018-03-11T03:11:36.197Z,0.00
2018-03-11T03:12:36.470Z,0.00
2018-03-11T03:13:36.116Z,0.00
2018-03-11T03:14:36.120Z,0.00
2018-03-11T03:15:36.059Z,0.00
2018-03-11T03:16:36.030Z,0.00
2018-03-11T03:17:35.943Z,0.00
2018-03-11T03:18:36.201Z,0.00
2018-03-11T03:19:35.858Z,0.00
2018-03-11T03:20:35.816Z,0.00
2018-03-11T03:21:35.772Z,0.00
2018-03-11T03:22:35.731Z,0.00
2018-03-11T03:23:35.692Z,0.00
2018-03-11T03:24:35.645Z,0.00
2018-03-11T03:25:35.900Z,0.00
2018-03-11T03:26:35.757Z,0.00
2018-03-11T03:27:35.514Z,0.00
2018-03-11T03:28:35.478Z,0.00
2018-03-11T03:29:35.430Z,0.00
2018-03-11T03:30:35.389Z,0.00
2018-03-11T03:31:35.352Z,0.00
2018-03-11T03:32:35.652Z,0.00
2018-03-11T03:33:35.262Z,0.00
2018-03-11T03:34:35.216Z,0.00
2018-03-11T03:35:35.172Z,0.00
2018-03-11T03:36:35.134Z,0.00
2018-03-11T03:37:35.090Z,0.00
2018-03-11T03:38:35.096Z,0.00
2018-03-11T03:39:35.298Z,0.00
2018-03-11T03:40:34.957Z,0.00
2018-03-11T03:41:34.913Z,0.00
2018-03-11T03:42:34.873Z,0.00
2018-03-11T03:43:34.827Z,0.00
2018-03-11T03:44:34.785Z,0.00
2018-03-11T03:45:34.745Z,0.00
2018-03-11T03:46:34.997Z,0.00
2018-03-11T03:47:34.657Z,0.00
2018-03-11T03:48:34.615Z,0.00
2018-03-11T03:49:34.568Z,0.00
2018-03-11T03:50:34.523Z,0.00
2018-03-11T03:51:34.481Z,0.00
2018-03-11T03:52:34.437Z,0.00
2018-03-11T03:53:34.692Z,0.00
2018-03-11T03:54:34.350Z,0.00
2018-03-11T03:55:34.311Z,0.00
2018-03-11T03:56:34.276Z,0.00
2018-03-11T03:57:34.224Z,0.00
2018-03-11T03:58:34.178Z,0.00
2018-03-11T03:59:34.432Z,0.00
2018-03-11T04:00:34.088Z,0.00
2018-03-11T04:01:34.046Z,0.00
2018-03-11T04:02:34.002Z,0.00
2018-03-11T04:03:33.959Z,0.00
2018-03-11T04:04:33.915Z,0.00
2018-03-11T04:05:34.171Z,0.00
2018-03-11T04:06:33.827Z,0.00
2018-03-11T04:07:33.782Z,0.00
2018-03-11T04:08:33.739Z,0.00
2018-03-11T04:09:33.748Z,0.00
2018-03-11T04:10:33.654Z,0.00
2018-03-11T04:11:33.910Z,0.00
2018-03-11T04:12:33.564Z,0.00
2018-03-11T04:13:33.526Z,0.00
2018-03-11T04:14:33.478Z,0.00
2018-03-11T04:15:33.534Z,0.00
2018-03-11T04:16:33.388Z,0.00
2018-03-11T04:17:33.644Z,0.00
2018-03-11T04:18:33.302Z,0.00
2018-03-11T04:19:33.258Z,0.00
2018-03-11T04:20:33.222Z,0.00
2018-03-11T04:21:33.171Z,0.00
2018-03-11T04:22:33.132Z,0.00
2018-03-11T04:23:33.386Z,0.00
2018-03-11T04:24:33.039Z,0.00
2018-03-11T04:25:32.995Z,0.00
2018-03-11T04:26:32.951Z,0.00
2018-03-11T04:27:32.913Z,0.00
2018-03-11T04:28:32.864Z,0.00
2018-03-11T04:29:33.121Z,0.00
2018-03-11T04:30:32.787Z,0.00
2018-03-11T04:31:32.734Z,0.00
2018-03-11T04:32:32.688Z,0.00
2018-03-11T04:33:32.670Z,0.00
2018-03-11T04:34:32.600Z,0.00
2018-03-11T04:35:32.557Z,0.00
2018-03-11T04:36:32.812Z,0.00
2018-03-11T04:37:32.466Z,0.00
2018-03-11T04:38:32.430Z,0.00
2018-03-11T04:39:32.381Z,0.00
2018-03-11T04:40:32.338Z,0.00
2018-03-11T04:41:32.291Z,0.00
2018-03-11T04:42:32.298Z,0.00
2018-03-11T04:43:32.509Z,0.00
2018-03-11T04:44:32.163Z,0.00
2018-03-11T04:45:32.114Z,0.00
2018-03-11T04:46:32.077Z,0.00
2018-03-11T04:47:32.029Z,0.00
2018-03-11T04:48:32.041Z,0.00
2018-03-11T04:49:31.941Z,0.00
2018-03-11T04:50:32.199Z,0.00
2018-03-11T04:51:31.854Z,0.00
2018-03-11T04:52:31.810Z,0.00
2018-03-11T04:53:31.762Z,0.00
2018-03-11T04:54:31.718Z,0.00
2018-03-11T04:55:31.675Z,0.00
2018-03-11T04:56:31.634Z,0.00
2018-03-11T04:57:31.886Z,0.00
2018-03-11T04:58:31.542Z,0.00
2018-03-11T04:59:31.502Z,0.00
2018-03-11T05:00:31.455Z,0.00
2018-03-11T05:01:31.413Z,0.00
2018-03-11T05:02:31.367Z,0.00
2018-03-11T05:03:31.323Z,0.00
2018-03-11T05:04:31.581Z,0.00
2018-03-11T05:05:31.234Z,0.00
2018-03-11T05:06:31.240Z,0.00
2018-03-11T05:07:31.148Z,0.00
2018-03-11T05:08:31.103Z,0.00
2018-03-11T05:09:31.059Z,0.00
2018-03-11T05:10:31.312Z,0.00
2018-03-11T05:11:30.969Z,0.00
2018-03-11T05:12:30.924Z,0.00
2018-03-11T05:13:30.885Z,0.00
2018-03-11T05:14:31.037Z,0.00
2018-03-11T05:15:30.792Z,0.00
2018-03-11T05:16:31.051Z,0.00
2018-03-11T05:17:30.753Z,0.00
2018-03-11T05:18:30.665Z,0.00
2018-03-11T05:19:30.614Z,0.00
2018-03-11T05:20:30.725Z,0.00
2018-03-11T05:21:30.531Z,0.00
2018-03-11T05:22:30.784Z,0.00
2018-03-11T05:23:30.438Z,0.00
2018-03-11T05:24:30.396Z,0.00
2018-03-11T05:25:30.349Z,0.00
2018-03-11T05:26:30.314Z,0.00
2018-03-11T05:27:30.264Z,0.00
2018-03-11T05:28:30.525Z,0.00
2018-03-11T05:29:30.175Z,0.00
2018-03-11T05:30:30.130Z,0.00
2018-03-11T05:31:30.141Z,0.00
2018-03-11T05:32:30.041Z,0.00
2018-03-11T05:33:29.998Z,0.00
2018-03-11T05:34:30.251Z,0.00
2018-03-11T05:35:29.907Z,0.00
2018-03-11T05:36:29.862Z,0.00
2018-03-11T05:37:29.819Z,0.00
2018-03-11T05:38:29.773Z,0.00
2018-03-11T05:39:29.747Z,5.63
2018-03-11T05:40:29.986Z,5.63
2018-03-11T05:41:29.643Z,11.25
2018-03-11T05:42:29.601Z,11.25
2018-03-11T05:43:29.550Z,16.88
2018-03-11T05:44:29.520Z,11.25
2018-03-11T05:45:29.467Z,16.88
2018-03-11T05:46:29.419Z,16.88
2018-03-11T05:47:29.673Z,16.88
2018-03-11T05:48:29.337Z,16.88
2018-03-11T05:49:29.284Z,16.88
2018-03-11T05:50:29.240Z,16.88
2018-03-11T05:51:29.196Z,16.88
2018-03-11T05:52:29.158Z,22.50
2018-03-11T05:53:29.162Z,22.50
2018-03-11T05:54:29.363Z,22.50
2018-03-11T05:55:29.016Z,28.13
2018-03-11T05:56:28.971Z,28.13
2018-03-11T05:57:28.928Z,33.75
2018-03-11T05:58:28.886Z,33.75
2018-03-11T05:59:28.838Z,39.38
2018-03-11T06:00:28.804Z,45.00
2018-03-11T06:01:29.048Z,50.63
2018-03-11T06:02:28.714Z,50.63
2018-03-11T06:03:28.666Z,56.25
2018-03-11T06:04:28.621Z,67.50
2018-03-11T06:05:28.570Z,73.13
2018-03-11T06:06:28.525Z,78.75
2018-03-11T06:07:28.532Z,84.38
2018-03-11T06:08:28.737Z,90.00
2018-03-11T06:09:28.392Z,90.00
2018-03-11T06:10:28.355Z,95.63
2018-03-11T06:11:28.310Z,106.88
2018-03-11T06:12:28.259Z,112.50
2018-03-11T06:13:28.265Z,118.13
2018-03-11T06:14:28.169Z,123.75
2018-03-11T06:15:28.426Z,129.38
2018-03-11T06:16:28.082Z,135.00
2018-03-11T06:17:28.037Z,146.25
2018-03-11T06:18:27.993Z,151.88
2018-03-11T06:19:27.951Z,157.50
2018-03-11T06:20:27.910Z,163.13
2018-03-11T06:21:28.158Z,168.75
2018-03-11T06:22:27.820Z,174.38
2018-03-11T06:23:27.773Z,180.00
2018-03-11T06:24:27.726Z,180.00
2018-03-11T06:25:27.682Z,185.63
2018-03-11T06:26:27.675Z,191.25
2018-03-11T06:27:27.895Z,202.50
2018-03-11T06:28:27.550Z,208.13
2018-03-11T06:29:27.509Z,219.38
2018-03-11T06:30:27.461Z,225.00
2018-03-11T06:31:27.419Z,230.63
2018-03-11T06:32:27.430Z,236.25
2018-03-11T06:33:27.634Z,236.25
2018-03-11T06:34:27.286Z,241.88
2018-03-11T06:35:27.242Z,247.50
2018-03-11T06:36:27.208Z,253.13
2018-03-11T06:37:27.155Z,253.13
2018-03-11T06:38:27.110Z,258.75
2018-03-11T06:39:27.366Z,264.38
2018-03-11T06:40:27.031Z,270.00
2018-03-11T06:41:26.977Z,275.63
2018-03-11T06:42:26.936Z,281.25
2018-03-11T06:43:26.893Z,286.88
2018-03-11T06:44:26.850Z,298.13
2018-03-11T06:45:27.105Z,303.75
2018-03-11T06:46:26.765Z,309.38
2018-03-11T06:47:27.716Z,309.38
2018-03-11T06:48:26.861Z,315.00
2018-03-11T06:49:26.815Z,315.00
2018-03-11T06:50:26.871Z,315.00
2018-03-11T06:51:27.051Z,309.38
2018-03-11T06:52:26.636Z,320.63
2018-03-11T06:53:26.842Z,326.25
2018-03-11T06:54:26.811Z,337.50
2018-03-11T06:55:26.587Z,343.13
2018-03-11T06:56:26.441Z,348.75
2018-03-11T06:57:26.446Z,360.00
2018-03-11T06:58:26.723Z,365.63
2018-03-11T06:59:26.295Z,376.88
2018-03-11T07:00:26.157Z,388.13
2018-03-11T07:01:26.113Z,399.38
2018-03-11T07:02:26.075Z,410.63
2018-03-11T07:03:26.037Z,421.88
2018-03-11T07:04:25.987Z,433.13
2018-03-11T07:05:26.242Z,444.38
2018-03-11T07:06:25.899Z,455.63
2018-03-11T07:07:25.856Z,461.25
2018-03-11T07:08:25.814Z,472.50
2018-03-11T07:09:25.780Z,472.50
2018-03-11T07:10:25.729Z,478.13
2018-03-11T07:11:25.684Z,483.75
2018-03-11T07:12:25.973Z,489.38
2018-03-11T07:13:25.600Z,500.63
2018-03-11T07:14:25.564Z,506.25
2018-03-11T07:15:25.516Z,511.88
2018-03-11T07:16:25.474Z,517.50
2018-03-11T07:17:25.437Z,523.13
2018-03-11T07:18:25.389Z,540.00
2018-03-11T07:19:25.644Z,556.88
2018-03-11T07:20:25.304Z,568.13
2018-03-11T07:21:25.259Z,585.00
2018-03-11T07:22:25.219Z,596.25
2018-03-11T07:23:25.197Z,607.50
2018-03-11T07:24:25.134Z,635.63
2018-03-11T07:25:25.092Z,686.25
2018-03-11T07:26:25.350Z,838.13
2018-03-11T07:27:25.008Z,978.75
2018-03-11T07:28:24.971Z,1068.75
2018-03-11T07:29:24.924Z,1012.50
2018-03-11T07:30:24.884Z,933.75
2018-03-11T07:31:24.845Z,933.75
2018-03-11T07:32:24.815Z,967.50
2018-03-11T07:33:25.061Z,950.63
2018-03-11T07:34:24.715Z,967.50
2018-03-11T07:35:24.670Z,973.13
2018-03-11T07:36:24.631Z,939.38
2018-03-11T07:37:24.588Z,990.00
2018-03-11T07:38:24.546Z,1074.38
2018-03-11T07:39:24.808Z,1057.50
2018-03-11T07:40:24.515Z,1035.00
2018-03-11T07:41:24.434Z,1035.00
2018-03-11T07:42:24.388Z,995.63
2018-03-11T07:43:24.346Z,1029.38
2018-03-11T07:44:24.300Z,1096.88
2018-03-11T07:45:24.560Z,922.50
2018-03-11T07:46:24.267Z,978.75
2018-03-11T07:47:24.178Z,973.13
2018-03-11T07:48:24.140Z,1046.25
2018-03-11T07:49:24.100Z,1035.00
2018-03-11T07:50:24.055Z,1080.00
2018-03-11T07:51:24.314Z,1085.63
2018-03-11T07:52:23.980Z,1102.50
2018-03-11T07:53:23.934Z,1181.25
2018-03-11T07:54:23.893Z,1158.75
2018-03-11T07:55:23.853Z,1091.25
2018-03-11T07:56:23.821Z,781.88
2018-03-11T07:57:24.073Z,821.25
2018-03-11T07:58:23.736Z,939.38
2018-03-11T07:59:23.691Z,939.38
2018-03-11T08:00:23.651Z,1091.25
2018-03-11T08:01:23.610Z,838.13
2018-03-11T08:02:23.569Z,601.88
2018-03-11T08:03:23.830Z,601.88
2018-03-11T08:04:23.489Z,635.63
2018-03-11T08:05:23.449Z,641.25
2018-03-11T08:06:23.414Z,720.00
2018-03-11T08:07:23.367Z,680.63
2018-03-11T08:08:23.332Z,691.88
2018-03-11T08:09:23.286Z,832.50
2018-03-11T08:10:23.545Z,691.88
2018-03-11T08:11:23.205Z,691.88
2018-03-11T08:12:23.221Z,781.88
2018-03-11T08:13:23.124Z,1248.75
2018-03-11T08:14:23.094Z,1383.75
2018-03-11T08:15:23.047Z,1783.13
2018-03-11T08:16:23.005Z,1783.13
2018-03-11T08:17:23.270Z,1771.88
2018-03-11T08:18:22.926Z,1940.63
2018-03-11T08:19:22.882Z,1586.25
2018-03-11T08:20:22.846Z,2385.00
2018-03-11T08:21:22.803Z,2677.50
2018-03-11T08:22:22.762Z,2722.50
2018-03-11T08:23:22.723Z,2598.75
2018-03-11T08:24:22.985Z,2525.63
2018-03-11T08:25:22.645Z,2480.63
2018-03-11T08:26:22.617Z,2081.25
2018-03-11T08:27:22.571Z,1293.75
2018-03-11T08:28:22.534Z,1485.00
2018-03-11T08:29:22.494Z,905.63
2018-03-11T08:30:22.455Z,652.50
2018-03-11T08:31:22.819Z,607.50
2018-03-11T08:32:22.382Z,590.63
2018-03-11T08:33:22.345Z,596.25
2018-03-11T08:34:22.309Z,483.75
2018-03-11T08:35:22.268Z,450.00
2018-03-11T08:36:22.432Z,444.38
2018-03-11T08:37:22.190Z,427.50
2018-03-11T08:38:22.457Z,399.38
2018-03-11T08:39:22.115Z,376.88
2018-03-11T08:40:22.080Z,365.63
2018-03-11T08:41:22.041Z,376.88
2018-03-11T08:42:22.048Z,382.50
2018-03-11T08:43:21.961Z,376.88
2018-03-11T08:44:21.930Z,376.88
2018-03-11T08:45:22.184Z,388.13
2018-03-11T08:46:22.042Z,405.00
2018-03-11T08:47:21.858Z,410.63
2018-03-11T08:48:21.798Z,399.38
2018-03-11T08:49:21.722Z,360.00
2018-03-11T08:50:21.687Z,309.38
2018-03-11T08:51:22.043Z,264.38
2018-03-11T08:52:21.602Z,236.25
2018-03-11T08:53:21.560Z,230.63
2018-03-11T08:54:21.571Z,225.00
2018-03-11T08:55:21.483Z,219.38
2018-03-11T08:56:21.692Z,219.38
2018-03-11T08:57:21.697Z,213.75
2018-03-11T08:58:21.358Z,191.25
2018-03-11T08:59:21.341Z,163.13
2018-03-11T09:00:21.281Z,146.25
2018-03-11T09:01:21.293Z,146.25
2018-03-11T09:02:21.196Z,151.88
2018-03-11T09:03:21.455Z,168.75
2018-03-11T09:04:21.366Z,196.88
2018-03-11T09:05:21.080Z,225.00
2018-03-11T09:06:21.035Z,247.50
2018-03-11T09:07:20.991Z,264.38
2018-03-11T09:08:20.950Z,275.63
2018-03-11T09:09:21.208Z,286.88
2018-03-11T09:10:20.897Z,286.88
2018-03-11T09:11:20.880Z,270.00
2018-03-11T09:12:20.988Z,270.00
2018-03-11T09:13:20.745Z,275.63
2018-03-11T09:14:20.753Z,281.25
2018-03-11T09:15:20.963Z,298.13
2018-03-11T09:16:20.671Z,326.25
2018-03-11T09:17:20.628Z,343.13
2018-03-11T09:18:20.539Z,348.75
2018-03-11T09:19:20.558Z,365.63
2018-03-11T09:20:20.461Z,393.75
2018-03-11T09:21:20.462Z,438.75
2018-03-11T09:22:20.728Z,483.75
2018-03-11T09:23:20.336Z,511.88
2018-03-11T09:24:20.298Z,540.00
2018-03-11T09:25:20.253Z,523.13
2018-03-11T09:26:20.210Z,461.25
2018-03-11T09:27:20.223Z,393.75
2018-03-11T09:28:20.140Z,337.50
2018-03-11T09:29:20.387Z,309.38
2018-03-11T09:30:20.052Z,303.75
2018-03-11T09:31:20.053Z,298.13
2018-03-11T09:32:20.015Z,298.13
2018-03-11T09:33:19.923Z,286.88
2018-03-11T09:34:19.886Z,270.00
2018-03-11T09:35:19.847Z,247.50
2018-03-11T09:36:20.098Z,219.38
2018-03-11T09:37:19.765Z,225.00
2018-03-11T09:38:19.769Z,236.25
2018-03-11T09:39:19.824Z,253.13
2018-03-11T09:40:19.708Z,253.13
2018-03-11T09:41:19.593Z,247.50
2018-03-11T09:42:19.575Z,230.63
2018-03-11T09:43:19.822Z,213.75
2018-03-11T09:44:19.471Z,196.88
2018-03-11T09:45:19.532Z,191.25
2018-03-11T09:46:19.388Z,196.88
2018-03-11T09:47:19.347Z,196.88
2018-03-11T09:48:19.310Z,202.50
2018-03-11T09:49:19.314Z,191.25
2018-03-11T09:50:19.526Z,174.38
2018-03-11T09:51:19.236Z,157.50
2018-03-11T09:52:19.293Z,163.13
2018-03-11T09:53:19.101Z,196.88
2018-03-11T09:54:19.107Z,236.25
2018-03-11T09:55:19.067Z,253.13
2018-03-11T09:56:19.028Z,253.13
2018-03-11T09:57:19.282Z,258.75
2018-03-11T09:58:18.890Z,281.25
2018-03-11T09:59:18.900Z,320.63
2018-03-11T10:00:18.861Z,365.63
2018-03-11T10:01:18.969Z,388.13
2018-03-11T10:02:18.800Z,382.50
2018-03-11T10:03:18.991Z,371.25
2018-03-11T10:04:18.799Z,376.88
2018-03-11T10:05:18.652Z,421.88
2018-03-11T10:06:18.566Z,472.50
2018-03-11T10:07:18.571Z,528.75
2018-03-11T10:08:18.486Z,585.00
2018-03-11T10:09:18.741Z,635.63
2018-03-11T10:10:18.499Z,680.63
2018-03-11T10:11:18.362Z,697.50
2018-03-11T10:12:18.321Z,680.63
2018-03-11T10:13:18.276Z,652.50
2018-03-11T10:14:18.341Z,641.25
2018-03-11T10:15:18.494Z,646.88
2018-03-11T10:16:18.376Z,624.38
2018-03-11T10:17:18.316Z,556.88
2018-03-11T10:18:18.073Z,489.38
2018-03-11T10:19:18.081Z,483.75
2018-03-11T10:20:18.045Z,500.63
2018-03-11T10:21:18.300Z,540.00
2018-03-11T10:22:17.960Z,573.75
2018-03-11T10:23:17.869Z,579.38
2018-03-11T10:24:17.930Z,568.13
2018-03-11T10:25:17.843Z,568.13
2018-03-11T10:26:17.798Z,579.38
2018-03-11T10:27:18.058Z,551.25
2018-03-11T10:28:17.672Z,506.25
2018-03-11T10:29:17.675Z,489.38
2018-03-11T10:30:17.641Z,500.63
2018-03-11T10:31:17.596Z,523.13
2018-03-11T10:32:17.662Z,511.88
2018-03-11T10:33:17.770Z,444.38
2018-03-11T10:34:17.474Z,393.75
2018-03-11T10:35:17.533Z,376.88
2018-03-11T10:36:17.346Z,399.38
2018-03-11T10:37:17.506Z,444.38
2018-03-11T10:38:17.359Z,472.50
2018-03-11T10:39:17.279Z,500.63
2018-03-11T10:40:17.548Z,540.00
2018-03-11T10:41:17.142Z,568.13
2018-03-11T10:42:17.165Z,596.25
2018-03-11T10:43:17.068Z,596.25
2018-03-11T10:44:17.226Z,579.38
2018-03-11T10:45:17.131Z,585.00
2018-03-11T10:46:16.990Z,624.38
2018-03-11T10:47:17.352Z,641.25
2018-03-11T10:48:16.861Z,590.63
2018-03-11T10:49:16.871Z,556.88
2018-03-11T10:50:16.834Z,556.88
2018-03-11T10:51:16.742Z,545.63
2018-03-11T10:52:17.003Z,556.88
2018-03-11T10:53:16.665Z,562.50
2018-03-11T10:54:16.970Z,562.50
2018-03-11T10:55:16.633Z,551.25
2018-03-11T10:56:16.841Z,540.00
2018-03-11T10:57:16.550Z,506.25
2018-03-11T10:58:16.462Z,450.00
2018-03-11T10:59:16.422Z,382.50
2018-03-11T11:00:16.437Z,331.88
2018-03-11T11:01:16.776Z,298.13
2018-03-11T11:02:16.388Z,298.13
2018-03-11T11:03:16.331Z,320.63
2018-03-11T11:04:16.455Z,337.50
2018-03-11T11:05:16.362Z,348.75
2018-03-11T11:06:16.171Z,376.88
2018-03-11T11:07:16.153Z,421.88
2018-03-11T11:08:16.362Z,466.88
2018-03-11T11:09:16.072Z,523.13
2018-03-11T11:10:16.040Z,585.00
2018-03-11T11:11:15.940Z,641.25
2018-03-11T11:12:15.949Z,669.38
2018-03-11T11:13:15.859Z,669.38
2018-03-11T11:14:16.173Z,652.50
2018-03-11T11:15:15.991Z,630.00
2018-03-11T11:16:15.741Z,596.25
2018-03-11T11:17:15.696Z,540.00
2018-03-11T11:18:15.658Z,523.13
2018-03-11T11:19:15.678Z,562.50
2018-03-11T11:20:15.927Z,579.38
2018-03-11T11:21:15.545Z,534.38
2018-03-11T11:22:15.557Z,483.75
2018-03-11T11:23:15.510Z,478.13
2018-03-11T11:24:15.479Z,483.75
2018-03-11T11:25:15.440Z,506.25
2018-03-11T11:26:15.662Z,540.00
2018-03-11T11:27:15.348Z,562.50
2018-03-11T11:28:15.311Z,562.50
2018-03-11T11:29:15.269Z,573.75
2018-03-11T11:30:15.184Z,607.50
2018-03-11T11:31:15.213Z,641.25
2018-03-11T11:32:15.447Z,652.50
2018-03-11T11:33:15.107Z,652.50
2018-03-11T11:34:15.077Z,680.63
2018-03-11T11:35:15.133Z,731.25
2018-03-11T11:36:14.939Z,787.50
2018-03-11T11:37:14.945Z,877.50
2018-03-11T11:38:15.157Z,1035.00
2018-03-11T11:39:14.867Z,1175.63
2018-03-11T11:40:14.833Z,1310.63
2018-03-11T11:41:14.740Z,1395.00
2018-03-11T11:42:14.748Z,1411.88
2018-03-11T11:43:14.710Z,1440.00
2018-03-11T11:44:14.983Z,1642.50
2018-03-11T11:45:14.632Z,2750.63
2018-03-11T11:46:14.543Z,3431.25
2018-03-11T11:47:14.554Z,3645.00
2018-03-11T11:48:14.527Z,3487.50
2018-03-11T11:49:14.481Z,3431.25
2018-03-11T11:50:14.443Z,3729.38
2018-03-11T11:51:14.660Z,2407.50
2018-03-11T11:52:14.382Z,2272.50
2018-03-11T11:53:14.336Z,2548.13
2018-03-11T11:54:14.301Z,3330.00
2018-03-11T11:55:14.313Z,3048.75
2018-03-11T11:56:14.199Z,3273.75
2018-03-11T11:57:14.204Z,2165.63
2018-03-11T11:58:14.462Z,2098.13
2018-03-11T11:59:14.288Z,2925.00
2018-03-11T12:00:14.095Z,3054.38
2018-03-11T12:01:14.014Z,2885.63
2018-03-11T12:02:14.030Z,2323.13
2018-03-11T12:03:14.001Z,2475.00
2018-03-11T12:04:14.113Z,2559.38
2018-03-11T12:05:14.428Z,1738.13
2018-03-11T12:06:13.846Z,1558.13
2018-03-11T12:07:13.965Z,1524.38
2018-03-11T12:08:13.879Z,1591.88
2018-03-11T12:09:14.098Z,1653.75
2018-03-11T12:10:13.775Z,1608.75
2018-03-11T12:11:13.689Z,1608.75
2018-03-11T12:12:14.060Z,1861.88
2018-03-11T12:13:13.663Z,1906.88
2018-03-11T12:14:13.584Z,2199.38
2018-03-11T12:15:13.595Z,2036.25
2018-03-11T12:16:13.518Z,2064.38
2018-03-11T12:17:13.529Z,2092.50
2018-03-11T12:18:13.589Z,2188.13
2018-03-11T12:19:13.809Z,2199.38
2018-03-11T12:20:13.427Z,2379.38
2018-03-11T12:21:13.341Z,2452.50
2018-03-11T12:22:13.353Z,2593.13
2018-03-11T12:23:13.319Z,2610.00
2018-03-11T12:24:13.237Z,2598.75
2018-03-11T12:25:13.265Z,2137.50
2018-03-11T12:26:13.471Z,2317.50
2018-03-11T12:27:13.187Z,2171.25
2018-03-11T12:28:13.108Z,1563.75
2018-03-11T12:29:13.073Z,1456.88
2018-03-11T12:30:13.038Z,1479.38
2018-03-11T12:31:13.001Z,1417.50
2018-03-11T12:32:13.275Z,1265.63
2018-03-11T12:33:13.083Z,1215.00
2018-03-11T12:34:12.977Z,1378.13
2018-03-11T12:35:12.919Z,1507.50
2018-03-11T12:36:12.836Z,1338.75
2018-03-11T12:37:12.898Z,1321.88
2018-03-11T12:38:13.113Z,1361.25
2018-03-11T12:39:12.732Z,1541.25
2018-03-11T12:40:12.742Z,1546.88
2018-03-11T12:41:12.659Z,1372.50
2018-03-11T12:42:12.672Z,1243.13
2018-03-11T12:43:12.638Z,1130.63
2018-03-11T12:44:12.850Z,1468.13
2018-03-11T12:45:12.718Z,1490.63
2018-03-11T12:46:12.478Z,1552.50
2018-03-11T12:47:12.643Z,1057.50